createdAt,value
2019-04-25T00:00:54.136Z,99316.71
2019-04-25T00:01:48.234Z,99309.34
2019-04-25T00:02:34.499Z,99310.22
2019-04-25T00:03:12.222Z,99308.75
2019-04-25T00:03:48.086Z,99317.86
2019-04-25T00:04:23.875Z,99304.58
2019-04-25T00:04:59.414Z,99310.32
2019-04-25T00:05:34.911Z,99309.66
2019-04-25T00:06:12.227Z,99313.63
2019-04-25T00:06:48.055Z,99313.42
2019-04-25T00:07:23.771Z,99313.63
2019-04-25T00:07:59.297Z,99316.66
2019-04-25T00:08:34.672Z,99318.34
2019-04-25T00:09:13.332Z,99314.31
2019-04-25T00:09:53.297Z,99312.70
2019-04-25T00:10:29.038Z,99316.13
2019-04-25T00:11:05.016Z,99321.36
2019-04-25T00:11:40.409Z,99315.08
2019-04-25T00:12:17.502Z,99315.14
2019-04-25T00:12:53.038Z,99312.86
2019-04-25T00:13:28.836Z,99309.06
2019-04-25T00:14:04.225Z,99314.06
2019-04-25T00:14:41.439Z,99313.72
2019-04-25T00:15:17.487Z,99312.56
2019-04-25T00:15:52.937Z,99316.90
2019-04-25T00:16:31.165Z,99316.45
2019-04-25T00:17:06.846Z,99318.59
2019-04-25T00:17:44.407Z,99309.69
2019-04-25T00:18:22.089Z,99321.73
2019-04-25T00:18:57.852Z,99315.35
2019-04-25T00:19:33.255Z,99311.40
2019-04-25T00:20:11.383Z,99315.21
2019-04-25T00:20:52.233Z,99314.37
2019-04-25T00:21:34.417Z,99310.95
2019-04-25T00:22:31.687Z,99300.70
2019-04-25T00:23:12.903Z,99313.25
2019-04-25T00:23:51.598Z,99309.60
2019-04-25T00:24:43.326Z,99312.70
2019-04-25T00:25:38.409Z,99318.78
2019-04-25T00:26:33.114Z,99313.61
2019-04-25T00:27:08.532Z,99314.77
2019-04-25T00:27:45.865Z,99310.13
2019-04-25T00:28:21.671Z,99310.13
2019-04-25T00:28:57.221Z,99310.30
2019-04-25T00:29:32.642Z,99306.25
2019-04-25T00:30:08.388Z,99307.09
2019-04-25T00:30:44.658Z,99308.70
2019-04-25T00:31:21.964Z,99307.16
2019-04-25T00:31:57.624Z,99304.50
2019-04-25T00:32:33.086Z,99307.47
2019-04-25T00:33:08.836Z,99308.31
2019-04-25T00:33:45.307Z,99309.73
2019-04-25T00:34:21.875Z,99305.52
2019-04-25T00:34:57.648Z,99315.22
2019-04-25T00:35:33.843Z,99313.48
2019-04-25T00:36:09.308Z,99310.89
2019-04-25T00:36:45.608Z,99310.83
2019-04-25T00:37:22.540Z,99319.81
2019-04-25T00:37:58.447Z,99319.81
2019-04-25T00:38:33.903Z,99327.24
2019-04-25T00:39:09.346Z,99329.90
2019-04-25T00:39:46.129Z,99328.29
2019-04-25T00:40:22.004Z,99317.36
2019-04-25T00:40:57.681Z,99315.54
2019-04-25T00:41:34.202Z,99317.35
2019-04-25T00:42:09.778Z,99323.44
2019-04-25T00:42:46.247Z,99311.21
2019-04-25T00:43:22.228Z,99311.21
2019-04-25T00:43:58.051Z,99321.36
2019-04-25T00:44:33.934Z,99321.36
2019-04-25T00:45:09.908Z,99313.72
2019-04-25T00:45:45.744Z,99315.08
2019-04-25T00:46:22.525Z,99313.72
2019-04-25T00:46:58.581Z,99309.55
2019-04-25T00:47:34.396Z,99311.12
2019-04-25T00:48:10.144Z,99314.39
2019-04-25T00:48:45.799Z,99318.05
2019-04-25T00:49:21.997Z,99322.14
2019-04-25T00:49:58.886Z,99315.29
2019-04-25T00:50:34.342Z,99324.78
2019-04-25T00:51:11.735Z,99319.41
2019-04-25T00:51:47.245Z,99328.30
2019-04-25T00:52:23.012Z,99329.20
2019-04-25T00:52:58.455Z,99326.83
2019-04-25T00:53:33.887Z,99326.83
2019-04-25T00:54:09.394Z,99324.31
2019-04-25T00:54:44.931Z,99322.80
2019-04-25T00:55:26.849Z,99322.75
2019-04-25T00:55:57.842Z,99317.72
2019-04-25T00:56:33.270Z,99315.89
2019-04-25T00:57:08.736Z,99321.13
2019-04-25T00:57:45.047Z,99324.23
2019-04-25T00:58:26.834Z,99323.77
2019-04-25T00:59:17.147Z,99313.36
2019-04-25T00:59:58.927Z,99313.20
2019-04-25T01:00:46.977Z,99313.20
2019-04-25T01:01:33.084Z,99321.02
2019-04-25T01:02:13.789Z,99312.95
2019-04-25T01:02:53.184Z,99319.30
2019-04-25T01:03:29.236Z,99318.59
2019-04-25T01:04:04.651Z,99328.40
2019-04-25T01:04:41.933Z,99328.88
2019-04-25T01:05:17.907Z,99323.39
2019-04-25T01:05:54.582Z,99323.03
2019-04-25T01:06:31.854Z,99332.88
2019-04-25T01:07:07.746Z,99327.05
2019-04-25T01:07:44.335Z,99332.30
2019-04-25T01:08:21.955Z,99327.81
2019-04-25T01:08:57.619Z,99335.56
2019-04-25T01:09:33.152Z,99332.80
2019-04-25T01:10:11.901Z,99328.92
2019-04-25T01:10:47.974Z,99337.50
2019-04-25T01:11:23.623Z,99333.05
2019-04-25T01:11:59.312Z,99336.23
2019-04-25T01:12:34.851Z,99336.23
2019-04-25T01:13:11.270Z,99337.98
2019-04-25T01:13:46.844Z,99336.92
2019-04-25T01:14:22.387Z,99333.70
2019-04-25T01:14:58.389Z,99343.77
2019-04-25T01:15:34.435Z,99343.78
2019-04-25T01:16:11.953Z,99341.85
2019-04-25T01:16:48.628Z,99341.85
2019-04-25T01:17:24.526Z,99341.77
2019-04-25T01:18:01.185Z,99340.98
2019-04-25T01:18:37.445Z,99332.80
2019-04-25T01:19:14.164Z,99338.21
2019-04-25T01:19:49.615Z,99349.35
2019-04-25T01:20:25.125Z,99342.80
2019-04-25T01:21:00.578Z,99343.48
2019-04-25T01:21:36.349Z,99338.66
2019-04-25T01:22:14.394Z,99340.98
2019-04-25T01:22:51.966Z,99340.98
2019-04-25T01:23:27.419Z,99333.96
2019-04-25T01:24:04.290Z,99342.84
2019-04-25T01:24:40.106Z,99338.73
2019-04-25T01:25:15.961Z,99333.77
2019-04-25T01:25:52.082Z,99334.16
2019-04-25T01:26:29.288Z,99334.16
2019-04-25T01:27:05.877Z,99340.61
2019-04-25T01:27:43.280Z,99341.00
2019-04-25T01:28:19.315Z,99341.00
2019-04-25T01:28:56.030Z,99344.93
2019-04-25T01:29:31.600Z,99336.73
2019-04-25T01:30:08.608Z,99348.48
2019-04-25T01:30:44.043Z,99340.92
2019-04-25T01:31:21.581Z,99340.92
2019-04-25T01:31:57.053Z,99331.58
2019-04-25T01:32:36.568Z,99331.58
2019-04-25T01:33:13.536Z,99341.02
2019-04-25T01:33:49.072Z,99336.70
2019-04-25T01:34:34.842Z,99339.69
2019-04-25T01:35:29.346Z,99339.69
2019-04-25T01:36:16.853Z,99348.04
2019-04-25T01:37:14.154Z,99346.48
2019-04-25T01:38:08.574Z,99346.64
2019-04-25T01:38:51.091Z,99346.64
2019-04-25T01:39:44.389Z,99342.12
2019-04-25T01:40:49.553Z,99342.57
2019-04-25T01:41:44.701Z,99334.02
2019-04-25T01:42:45.266Z,99340.53
2019-04-25T01:43:39.760Z,99340.53
2019-04-25T01:44:22.154Z,99337.56
2019-04-25T01:44:58.920Z,99347.50
2019-04-25T01:45:34.511Z,99347.50
2019-04-25T01:46:11.357Z,99354.33
2019-04-25T01:46:48.179Z,99342.61
2019-04-25T01:47:24.778Z,99347.55
2019-04-25T01:48:00.272Z,99347.32
2019-04-25T01:48:36.047Z,99345.48
2019-04-25T01:49:11.467Z,99345.31
2019-04-25T01:49:46.895Z,99351.19
2019-04-25T01:50:23.320Z,99348.61
2019-04-25T01:50:58.844Z,99353.61
2019-04-25T01:51:34.684Z,99348.22
2019-04-25T01:52:10.115Z,99348.22
2019-04-25T01:52:45.688Z,99356.20
2019-04-25T01:53:21.161Z,99350.65
2019-04-25T01:53:57.214Z,99357.36
2019-04-25T01:54:33.925Z,99357.36
2019-04-25T01:55:10.041Z,99354.78
2019-04-25T01:55:53.292Z,99351.13
2019-04-25T01:56:24.697Z,99351.13
2019-04-25T01:57:01.320Z,99350.12
2019-04-25T01:57:36.757Z,99347.33
2019-04-25T01:58:13.720Z,99351.15
2019-04-25T01:58:50.056Z,99356.70
2019-04-25T01:59:25.562Z,99357.23
2019-04-25T02:00:01.939Z,99353.22
2019-04-25T02:00:44.972Z,99354.50
2019-04-25T02:01:21.868Z,99357.31
2019-04-25T02:01:57.340Z,99360.22
2019-04-25T02:02:33.559Z,99360.55
2019-04-25T02:03:09.511Z,99366.22
2019-04-25T02:03:44.929Z,99366.22
2019-04-25T02:04:20.519Z,99365.50
2019-04-25T02:04:57.972Z,99366.05
2019-04-25T02:05:33.974Z,99364.66
2019-04-25T02:06:09.484Z,99362.56
2019-04-25T02:06:45.003Z,99365.50
2019-04-25T02:07:20.548Z,99360.88
2019-04-25T02:07:57.007Z,99362.30
2019-04-25T02:08:34.018Z,99361.34
2019-04-25T02:09:13.668Z,99362.17
2019-04-25T02:09:49.233Z,99361.78
2019-04-25T02:10:25.269Z,99365.14
2019-04-25T02:11:19.503Z,99361.34
2019-04-25T02:12:09.271Z,99365.20
2019-04-25T02:12:49.328Z,99365.20
2019-04-25T02:13:26.209Z,99363.91
2019-04-25T02:14:01.663Z,99363.91
2019-04-25T02:14:37.086Z,99360.11
2019-04-25T02:15:14.835Z,99360.11
2019-04-25T02:15:52.144Z,99363.77
2019-04-25T02:16:29.631Z,99362.80
2019-04-25T02:17:05.104Z,99362.80
2019-04-25T02:17:40.887Z,99361.27
2019-04-25T02:18:16.627Z,99361.58
2019-04-25T02:18:54.197Z,99362.08
2019-04-25T02:19:29.794Z,99362.08
2019-04-25T02:20:05.603Z,99361.19
2019-04-25T02:20:41.106Z,99361.00
2019-04-25T02:21:16.539Z,99361.13
2019-04-25T02:21:52.789Z,99360.73
2019-04-25T02:22:29.391Z,99360.73
2019-04-25T02:23:05.078Z,99358.72
2019-04-25T02:23:40.531Z,99354.02
2019-04-25T02:24:16.288Z,99361.00
2019-04-25T02:24:51.847Z,99354.05
2019-04-25T02:25:28.504Z,99354.05
2019-04-25T02:26:15.291Z,99354.05
2019-04-25T02:26:43.686Z,99364.81
2019-04-25T02:27:20.449Z,99357.14
2019-04-25T02:27:58.655Z,99360.88
2019-04-25T02:28:33.859Z,99360.23
2019-04-25T02:29:09.464Z,99356.12
2019-04-25T02:29:44.960Z,99363.08
2019-04-25T02:30:21.418Z,99366.49
2019-04-25T02:31:00.027Z,99368.17
2019-04-25T02:31:34.933Z,99363.34
2019-04-25T02:32:10.747Z,99363.34
2019-04-25T02:32:46.279Z,99374.73
2019-04-25T02:33:24.240Z,99374.73
2019-04-25T02:34:01.167Z,99380.22
2019-04-25T02:34:36.999Z,99372.70
2019-04-25T02:35:14.712Z,99372.25
2019-04-25T02:35:50.330Z,99364.12
2019-04-25T02:36:26.069Z,99371.31
2019-04-25T02:37:07.084Z,99372.16
2019-04-25T02:37:38.664Z,99378.98
2019-04-25T02:38:16.883Z,99376.74
2019-04-25T02:38:51.620Z,99375.52
2019-04-25T02:39:27.906Z,99375.01
2019-04-25T02:40:06.651Z,99378.09
2019-04-25T02:40:40.879Z,99380.10
2019-04-25T02:41:16.382Z,99374.85
2019-04-25T02:41:54.404Z,99374.85
2019-04-25T02:42:29.363Z,99383.25
2019-04-25T02:43:08.024Z,99380.94
2019-04-25T02:43:44.740Z,99380.94
2019-04-25T02:44:19.506Z,99371.26
2019-04-25T02:45:08.644Z,99371.26
2019-04-25T02:45:59.893Z,99374.11
2019-04-25T02:46:51.929Z,99388.28
2019-04-25T02:47:37.083Z,99394.28
2019-04-25T02:48:34.174Z,99394.28
2019-04-25T02:49:40.100Z,99386.61
2019-04-25T02:50:30.472Z,99386.61
2019-04-25T02:51:14.586Z,99381.17
2019-04-25T02:52:12.796Z,99388.28
2019-04-25T02:53:07.050Z,99389.19
2019-04-25T02:53:45.522Z,99389.19
2019-04-25T02:54:21.562Z,99381.95
2019-04-25T02:54:58.688Z,99390.65
2019-04-25T02:55:37.611Z,99376.23
2019-04-25T02:56:29.412Z,99381.38
2019-04-25T02:56:49.397Z,99381.38
2019-04-25T02:57:26.038Z,99383.00
2019-04-25T02:58:04.863Z,99386.93
2019-04-25T02:58:39.397Z,99387.33
2019-04-25T02:59:15.088Z,99387.33
2019-04-25T02:59:50.733Z,99386.03
2019-04-25T03:00:45.835Z,99382.22
2019-04-25T03:01:17.945Z,99382.22
2019-04-25T03:01:46.840Z,99380.88
2019-04-25T03:02:24.743Z,99386.33
2019-04-25T03:03:01.169Z,99386.33
2019-04-25T03:03:36.687Z,99380.04
2019-04-25T03:04:14.250Z,99387.38
2019-04-25T03:04:49.302Z,99392.84
2019-04-25T03:05:25.592Z,99392.84
2019-04-25T03:06:01.571Z,99383.52
2019-04-25T03:06:37.420Z,99393.44
2019-04-25T03:07:16.720Z,99393.44
2019-04-25T03:07:50.135Z,99394.78
2019-04-25T03:08:25.647Z,99394.78
2019-04-25T03:09:02.013Z,99403.56
2019-04-25T03:09:38.466Z,99404.96
2019-04-25T03:10:15.010Z,99404.96
2019-04-25T03:10:50.565Z,99391.50
2019-04-25T03:11:26.477Z,99390.09
2019-04-25T03:12:02.002Z,99392.67
2019-04-25T03:12:37.621Z,99392.67
2019-04-25T03:13:14.805Z,99392.67
2019-04-25T03:13:50.416Z,99390.02
2019-04-25T03:14:26.759Z,99390.02
2019-04-25T03:15:05.356Z,99395.75
2019-04-25T03:15:39.874Z,99391.30
2019-04-25T03:16:15.319Z,99398.70
2019-04-25T03:16:50.947Z,99398.70
2019-04-25T03:17:26.631Z,99401.04
2019-04-25T03:18:04.700Z,99399.47
2019-04-25T03:18:48.602Z,99396.20
2019-04-25T03:19:46.419Z,99396.70
2019-04-25T03:20:41.241Z,99400.38
2019-04-25T03:21:21.592Z,99393.61
2019-04-25T03:21:58.626Z,99387.30
2019-04-25T03:22:35.489Z,99399.73
2019-04-25T03:23:30.241Z,99399.73
2019-04-25T03:24:10.422Z,99392.90
2019-04-25T03:24:45.695Z,99396.02
2019-04-25T03:25:20.588Z,99394.89
2019-04-25T03:25:56.122Z,99393.66
2019-04-25T03:26:39.824Z,99387.61
2019-04-25T03:27:09.388Z,99397.21
2019-04-25T03:27:44.852Z,99400.72
2019-04-25T03:28:20.356Z,99395.62
2019-04-25T03:28:56.042Z,99395.62
2019-04-25T03:29:31.561Z,99401.86
2019-04-25T03:30:11.750Z,99399.23
2019-04-25T03:30:44.998Z,99393.29
2019-04-25T03:31:23.104Z,99391.42
2019-04-25T03:31:58.208Z,99394.07
2019-04-25T03:32:35.562Z,99394.07
2019-04-25T03:33:18.146Z,99402.70
2019-04-25T03:33:48.867Z,99402.70
2019-04-25T03:34:25.332Z,99405.48
2019-04-25T03:35:01.305Z,99405.48
2019-04-25T03:35:37.152Z,99398.36
2019-04-25T03:36:14.247Z,99403.15
2019-04-25T03:36:50.149Z,99413.80
2019-04-25T03:37:25.740Z,99410.09
2019-04-25T03:38:02.175Z,99410.09
2019-04-25T03:38:38.077Z,99412.56
2019-04-25T03:39:16.278Z,99410.94
2019-04-25T03:39:51.066Z,99410.94
2019-04-25T03:40:26.828Z,99413.20
2019-04-25T03:41:04.138Z,99413.20
2019-04-25T03:41:39.567Z,99417.96
2019-04-25T03:42:16.645Z,99417.96
2019-04-25T03:42:53.812Z,99411.16
2019-04-25T03:43:29.593Z,99416.11
2019-04-25T03:44:06.314Z,99416.11
2019-04-25T03:44:43.696Z,99419.59
2019-04-25T03:45:19.078Z,99419.59
2019-04-25T03:45:54.636Z,99423.47
2019-04-25T03:46:30.945Z,99414.50
2019-04-25T03:47:07.791Z,99418.19
2019-04-25T03:47:44.426Z,99418.95
2019-04-25T03:48:20.183Z,99418.61
2019-04-25T03:48:55.691Z,99409.01
2019-04-25T03:49:31.568Z,99409.01
2019-04-25T03:50:08.121Z,99407.97
2019-04-25T03:50:44.215Z,99414.58
2019-04-25T03:51:19.695Z,99416.03
2019-04-25T03:51:55.170Z,99416.03
2019-04-25T03:52:31.012Z,99422.87
2019-04-25T03:53:06.526Z,99422.87
2019-04-25T03:53:43.788Z,99418.55
2019-04-25T03:54:19.735Z,99418.55
2019-04-25T03:54:56.804Z,99431.47
2019-04-25T03:55:34.038Z,99425.45
2019-04-25T03:56:10.387Z,99425.45
2019-04-25T03:56:53.497Z,99438.21
2019-04-25T03:57:23.317Z,99438.21
2019-04-25T03:57:58.903Z,99438.66
2019-04-25T03:58:34.389Z,99431.38
2019-04-25T03:59:10.580Z,99443.81
2019-04-25T03:59:46.190Z,99443.81
2019-04-25T04:00:21.819Z,99434.58
2019-04-25T04:00:57.332Z,99427.31
2019-04-25T04:01:34.260Z,99426.48
2019-04-25T04:02:09.835Z,99426.48
2019-04-25T04:02:45.242Z,99426.67
2019-04-25T04:03:20.730Z,99426.67
2019-04-25T04:03:56.237Z,99426.89
2019-04-25T04:04:33.553Z,99426.36
2019-04-25T04:05:09.612Z,99432.00
2019-04-25T04:05:45.737Z,99432.00
2019-04-25T04:06:21.277Z,99428.67
2019-04-25T04:06:57.164Z,99439.28
2019-04-25T04:07:33.683Z,99440.46
2019-04-25T04:08:09.795Z,99441.02
2019-04-25T04:08:45.194Z,99437.94
2019-04-25T04:09:21.067Z,99443.73
2019-04-25T04:09:56.707Z,99438.00
2019-04-25T04:10:33.272Z,99438.00
2019-04-25T04:11:08.752Z,99440.72
2019-04-25T04:11:44.161Z,99437.36
2019-04-25T04:12:19.632Z,99439.38
2019-04-25T04:12:55.902Z,99433.94
2019-04-25T04:13:31.966Z,99440.27
2019-04-25T04:14:08.229Z,99440.27
2019-04-25T04:14:43.841Z,99439.73
2019-04-25T04:15:19.926Z,99442.59
2019-04-25T04:15:55.412Z,99438.75
2019-04-25T04:16:35.085Z,99439.59
2019-04-25T04:17:16.710Z,99439.59
2019-04-25T04:18:17.236Z,99432.45
2019-04-25T04:18:54.531Z,99432.45
2019-04-25T04:19:30.346Z,99437.86
2019-04-25T04:20:40.890Z,99442.12
2019-04-25T04:21:43.182Z,99444.30
2019-04-25T04:22:25.745Z,99430.44
2019-04-25T04:23:07.937Z,99440.97
2019-04-25T04:24:04.055Z,99440.97
2019-04-25T04:24:44.089Z,99428.78
2019-04-25T04:25:20.133Z,99440.38
2019-04-25T04:25:56.075Z,99443.59
2019-04-25T04:26:33.161Z,99443.59
2019-04-25T04:27:15.571Z,99438.70
2019-04-25T04:27:51.318Z,99438.70
2019-04-25T04:28:27.211Z,99444.35
2019-04-25T04:29:04.627Z,99443.52
2019-04-25T04:29:40.625Z,99441.72
2019-04-25T04:30:16.502Z,99441.72
2019-04-25T04:30:53.965Z,99442.47
2019-04-25T04:31:29.271Z,99442.92
2019-04-25T04:32:04.742Z,99451.19
2019-04-25T04:32:40.202Z,99451.19
2019-04-25T04:33:25.725Z,99442.72
2019-04-25T04:33:53.101Z,99442.72
2019-04-25T04:34:28.900Z,99446.14
2019-04-25T04:35:04.753Z,99444.80
2019-04-25T04:35:40.492Z,99444.80
2019-04-25T04:36:17.725Z,99450.45
2019-04-25T04:36:53.728Z,99448.33
2019-04-25T04:37:29.744Z,99447.06
2019-04-25T04:38:05.264Z,99449.50
2019-04-25T04:38:40.757Z,99441.05
2019-04-25T04:39:17.456Z,99441.05
2019-04-25T04:39:53.748Z,99454.52
2019-04-25T04:40:29.500Z,99441.78
2019-04-25T04:41:04.968Z,99441.78
2019-04-25T04:41:40.403Z,99450.59
2019-04-25T04:42:16.155Z,99456.93
2019-04-25T04:42:53.340Z,99459.37
2019-04-25T04:43:29.039Z,99455.98
2019-04-25T04:44:04.596Z,99459.84
2019-04-25T04:44:40.087Z,99457.02
2019-04-25T04:45:16.568Z,99457.02
2019-04-25T04:45:52.235Z,99458.11
2019-04-25T04:46:28.051Z,99458.11
2019-04-25T04:47:04.107Z,99451.27
2019-04-25T04:47:39.769Z,99457.69
2019-04-25T04:48:15.620Z,99448.12
2019-04-25T04:48:51.120Z,99457.63
2019-04-25T04:49:26.675Z,99457.63
2019-04-25T04:50:03.749Z,99460.48
2019-04-25T04:50:39.351Z,99451.90
2019-04-25T04:51:15.785Z,99452.98
2019-04-25T04:51:51.633Z,99451.36
2019-04-25T04:52:27.600Z,99451.36
2019-04-25T04:53:03.915Z,99414.63
2019-04-25T04:53:39.410Z,99457.90
2019-04-25T04:54:15.549Z,99452.02
2019-04-25T04:55:03.758Z,99452.02
2019-04-25T04:55:29.485Z,99457.95
2019-04-25T04:56:04.936Z,99457.95
2019-04-25T04:56:40.412Z,99452.91
2019-04-25T04:57:26.523Z,99458.73
2019-04-25T04:57:54.332Z,99460.39
2019-04-25T04:58:30.152Z,99468.01
2019-04-25T04:59:06.109Z,99476.08
2019-04-25T04:59:41.640Z,99473.35
2019-04-25T05:00:18.660Z,99468.45
2019-04-25T05:00:54.169Z,99473.89
2019-04-25T05:01:31.333Z,99475.19
2019-04-25T05:02:33.218Z,99470.78
2019-04-25T05:03:34.342Z,99471.56
2019-04-25T05:04:19.263Z,99472.73
2019-04-25T05:05:26.222Z,99473.94
2019-04-25T05:06:11.014Z,99479.18
2019-04-25T05:07:00.754Z,99479.18
2019-04-25T05:07:43.931Z,99486.32
2019-04-25T05:08:25.141Z,99486.54
2019-04-25T05:09:08.856Z,99487.56
2019-04-25T05:09:44.296Z,99487.56
2019-04-25T05:10:20.157Z,99488.80
2019-04-25T05:10:57.350Z,99488.80
2019-04-25T05:11:33.558Z,99491.23
2019-04-25T05:12:09.028Z,99485.50
2019-04-25T05:12:44.826Z,99490.39
2019-04-25T05:13:20.735Z,99485.36
2019-04-25T05:13:56.223Z,99472.57
2019-04-25T05:14:31.688Z,99479.35
2019-04-25T05:15:07.933Z,99478.06
2019-04-25T05:15:44.658Z,99480.88
2019-04-25T05:16:20.532Z,99480.88
2019-04-25T05:16:56.376Z,99474.64
2019-04-25T05:17:34.154Z,99472.12
2019-04-25T05:18:09.397Z,99471.38
2019-04-25T05:18:45.130Z,99471.38
2019-04-25T05:19:20.639Z,99471.22
2019-04-25T05:19:56.273Z,99471.22
2019-04-25T05:20:31.844Z,99470.83
2019-04-25T05:21:07.967Z,99475.03
2019-04-25T05:21:45.507Z,99481.39
2019-04-25T05:22:20.594Z,99468.52
2019-04-25T05:22:56.626Z,99478.19
2019-04-25T05:23:32.091Z,99478.19
2019-04-25T05:24:07.685Z,99482.89
2019-04-25T05:24:43.828Z,99482.89
2019-04-25T05:25:20.629Z,99483.73
2019-04-25T05:25:56.341Z,99485.77
2019-04-25T05:26:31.785Z,99486.66
2019-04-25T05:27:07.576Z,99486.66
2019-04-25T05:27:59.084Z,99480.20
2019-04-25T05:28:20.970Z,99480.20
2019-04-25T05:28:56.582Z,99486.98
2019-04-25T05:29:33.897Z,99483.21
2019-04-25T05:30:14.583Z,99479.73
2019-04-25T05:30:58.316Z,99479.61
2019-04-25T05:31:43.925Z,99479.61
2019-04-25T05:32:19.833Z,99478.09
2019-04-25T05:32:55.522Z,99468.05
2019-04-25T05:33:31.039Z,99458.48
2019-04-25T05:34:06.475Z,99466.84
2019-04-25T05:34:42.257Z,99460.59
2019-04-25T05:35:18.175Z,99460.59
2019-04-25T05:35:55.073Z,99458.47
2019-04-25T05:36:39.635Z,99463.45
2019-04-25T05:37:15.520Z,99454.19
2019-04-25T05:37:53.344Z,99461.05
2019-04-25T05:38:29.131Z,99452.73
2019-04-25T05:39:06.661Z,99454.42
2019-04-25T05:39:43.450Z,99453.20
2019-04-25T05:40:20.137Z,99450.55
2019-04-25T05:41:00.120Z,99453.44
2019-04-25T05:41:41.997Z,99448.66
2019-04-25T05:42:25.707Z,99448.03
2019-04-25T05:43:08.018Z,99446.73
2019-04-25T05:43:43.571Z,99442.27
2019-04-25T05:44:19.008Z,99440.00
2019-04-25T05:44:56.858Z,99429.86
2019-04-25T05:45:34.009Z,99428.64
2019-04-25T05:46:09.711Z,99425.14
2019-04-25T05:46:45.332Z,99425.14
2019-04-25T05:47:23.097Z,99419.52
2019-04-25T05:47:58.810Z,99426.05
2019-04-25T05:48:34.269Z,99430.03
2019-04-25T05:49:09.721Z,99419.97
2019-04-25T05:49:45.163Z,99412.66
2019-04-25T05:50:20.708Z,99414.05
2019-04-25T05:50:56.541Z,99415.63
2019-04-25T05:51:33.756Z,99411.16
2019-04-25T05:52:09.405Z,99411.30
2019-04-25T05:52:45.945Z,99407.42
2019-04-25T05:53:22.319Z,99406.50
2019-04-25T05:53:59.314Z,99399.98
2019-04-25T05:54:34.981Z,99400.30
2019-04-25T05:55:10.758Z,99397.08
2019-04-25T05:55:46.208Z,99395.86
2019-04-25T05:56:25.824Z,99395.64
2019-04-25T05:56:59.853Z,99391.00
2019-04-25T05:57:45.480Z,99391.91
2019-04-25T05:58:13.828Z,99389.18
2019-04-25T05:58:49.470Z,99391.00
2019-04-25T05:59:26.692Z,99394.04
2019-04-25T06:00:03.683Z,99394.28
2019-04-25T06:00:39.544Z,99392.95
2019-04-25T06:01:15.367Z,99390.61
2019-04-25T06:01:51.689Z,99399.73
2019-04-25T06:02:27.819Z,99399.35
2019-04-25T06:03:03.688Z,99388.16
2019-04-25T06:03:40.016Z,99394.80
2019-04-25T06:04:15.597Z,99400.11
2019-04-25T06:04:51.088Z,99401.62
2019-04-25T06:05:27.636Z,99398.82
2019-04-25T06:06:03.820Z,99393.97
2019-04-25T06:06:39.419Z,99396.94
2019-04-25T06:07:14.885Z,99400.26
2019-04-25T06:07:50.337Z,99404.20
2019-04-25T06:08:28.080Z,99408.25
2019-04-25T06:09:15.826Z,99409.69
2019-04-25T06:10:17.183Z,99410.66
2019-04-25T06:11:04.093Z,99414.33
2019-04-25T06:11:50.416Z,99422.17
2019-04-25T06:12:46.532Z,99423.01
2019-04-25T06:13:40.917Z,99424.67
2019-04-25T06:14:18.267Z,99419.63
2019-04-25T06:14:54.687Z,99428.82
2019-04-25T06:15:30.629Z,99435.28
2019-04-25T06:16:14.163Z,99433.29
2019-04-25T06:16:50.143Z,99432.56
2019-04-25T06:17:36.872Z,99434.05
2019-04-25T06:18:28.960Z,99436.78
2019-04-25T06:19:18.511Z,99445.16
2019-04-25T06:19:53.777Z,99445.16
2019-04-25T06:20:34.311Z,99451.56
2019-04-25T06:21:10.816Z,99444.85
2019-04-25T06:21:46.326Z,99448.98
2019-04-25T06:22:31.277Z,99442.64
2019-04-25T06:23:16.420Z,99442.64
2019-04-25T06:24:16.990Z,99453.31
2019-04-25T06:24:59.928Z,99455.12
2019-04-25T06:25:39.598Z,99455.12
2019-04-25T06:26:22.974Z,99463.86
2019-04-25T06:26:59.321Z,99463.92
2019-04-25T06:27:38.464Z,99460.73
2019-04-25T06:28:16.652Z,99457.84
2019-04-25T06:28:58.837Z,99465.77
2019-04-25T06:29:29.440Z,99464.47
2019-04-25T06:30:12.059Z,99464.88
2019-04-25T06:30:47.495Z,99463.17
2019-04-25T06:31:24.079Z,99466.41
2019-04-25T06:32:06.675Z,99472.23
2019-04-25T06:32:37.854Z,99471.12
2019-04-25T06:33:13.428Z,99473.84
2019-04-25T06:33:49.153Z,99469.73
2019-04-25T06:34:25.393Z,99472.70
2019-04-25T06:35:01.979Z,99469.19
2019-04-25T06:35:37.430Z,99472.17
2019-04-25T06:36:13.968Z,99472.17
2019-04-25T06:36:49.937Z,99480.25
2019-04-25T06:37:25.863Z,99480.25
2019-04-25T06:38:03.592Z,99478.57
2019-04-25T06:38:39.132Z,99473.00
2019-04-25T06:39:14.630Z,99475.80
2019-04-25T06:39:50.218Z,99479.45
2019-04-25T06:40:29.745Z,99482.55
2019-04-25T06:41:05.327Z,99485.98
2019-04-25T06:41:41.264Z,99484.30
2019-04-25T06:42:17.068Z,99491.35
2019-04-25T06:42:54.926Z,99489.19
2019-04-25T06:43:30.156Z,99494.22
2019-04-25T06:44:07.539Z,99491.63
2019-04-25T06:45:03.557Z,99492.38
2019-04-25T06:46:09.919Z,99496.39
2019-04-25T06:47:03.371Z,99494.67
2019-04-25T06:47:53.995Z,99495.39
2019-04-25T06:48:48.508Z,99491.72
2019-04-25T06:49:27.829Z,99494.50
2019-04-25T06:50:04.345Z,99497.20
2019-04-25T06:50:40.229Z,99493.16
2019-04-25T06:51:15.701Z,99490.20
2019-04-25T06:51:55.079Z,99492.77
2019-04-25T06:52:31.995Z,99490.41
2019-04-25T06:53:07.704Z,99484.14
2019-04-25T06:53:43.620Z,99481.77
2019-04-25T06:54:19.450Z,99482.20
2019-04-25T06:54:55.232Z,99485.61
2019-04-25T06:55:30.846Z,99480.07
2019-04-25T06:56:06.600Z,99489.42
2019-04-25T06:56:43.475Z,99485.66
2019-04-25T06:57:19.492Z,99483.83
2019-04-25T06:57:55.016Z,99482.91
2019-04-25T06:58:30.623Z,99470.09
2019-04-25T06:59:06.110Z,99481.07
2019-04-25T06:59:43.647Z,99486.04
2019-04-25T07:00:19.932Z,99482.23
2019-04-25T07:01:00.578Z,99488.86
2019-04-25T07:01:35.116Z,99490.87
2019-04-25T07:02:10.570Z,99479.31
2019-04-25T07:02:46.685Z,99481.61
2019-04-25T07:03:23.432Z,99484.69
2019-04-25T07:04:01.051Z,99476.73
2019-04-25T07:04:36.475Z,99478.03
2019-04-25T07:05:26.132Z,99480.33
2019-04-25T07:05:50.764Z,99482.45
2019-04-25T07:06:27.179Z,99489.69
2019-04-25T07:07:10.689Z,99482.91
2019-04-25T07:07:40.196Z,99491.80
2019-04-25T07:08:15.658Z,99487.84
2019-04-25T07:08:51.155Z,99493.77
2019-04-25T07:09:29.601Z,99500.36
2019-04-25T07:10:06.153Z,99501.03
2019-04-25T07:10:41.952Z,99498.06
2019-04-25T07:11:17.517Z,99496.69
2019-04-25T07:11:54.021Z,99494.73
2019-04-25T07:12:32.456Z,99499.93
2019-04-25T07:13:07.165Z,99496.13
2019-04-25T07:13:43.883Z,99495.89
2019-04-25T07:14:20.156Z,99494.72
2019-04-25T07:14:55.684Z,99493.10
2019-04-25T07:15:31.875Z,99491.69
2019-04-25T07:16:08.447Z,99491.89
2019-04-25T07:16:44.958Z,99497.54
2019-04-25T07:17:20.429Z,99496.80
2019-04-25T07:17:56.918Z,99495.58
2019-04-25T07:18:35.497Z,99490.83
2019-04-25T07:19:09.503Z,99499.45
2019-04-25T07:19:45.541Z,99492.92
2019-04-25T07:20:21.388Z,99499.08
2019-04-25T07:20:57.431Z,99496.17
2019-04-25T07:21:34.669Z,99497.78
2019-04-25T07:22:10.748Z,99494.97
2019-04-25T07:22:46.192Z,99501.80
2019-04-25T07:23:23.674Z,99502.90
2019-04-25T07:23:59.312Z,99498.17
2019-04-25T07:24:35.423Z,99500.42
2019-04-25T07:25:14.027Z,99503.02
2019-04-25T07:25:59.023Z,99502.62
2019-04-25T07:26:56.547Z,99508.28
2019-04-25T07:27:53.321Z,99503.20
2019-04-25T07:28:47.126Z,99503.28